Time;durP1;ratioP1;P1;durP2;ratioP2;P2;SDS_P1;SDS_P2;PMS_P1;PMS_P2;Temp;Humidity;BMP_temperature;BMP_pressure;BME280_temperature;BME280_humidity;BME280_pressure;Samples;Min_cycle;Max_cycle;Signal;HPM_P1;HPM_P2
2021/07/29 00:00:48;;;;;;;;;;;16.40;99.90;;;;;;6075840;29;19911;-80
2021/07/29 00:03:48;;;;;;;;;;;16.40;99.90;;;;;;6074715;29;19930;-79
2021/07/29 00:06:49;;;;;;;;;;;16.30;99.90;;;;;;6094443;29;19961;-80
2021/07/29 00:09:49;;;;;;;;;;;16.30;99.90;;;;;;6178835;28;19918;-80
2021/07/29 00:12:50;;;;;;;;;;;16.40;99.90;;;;;;6163199;28;19923;-80
2021/07/29 00:15:50;;;;;;;;;;;16.30;99.90;;;;;;6179420;28;20350;-80
2021/07/29 00:19:04;;;;;;;;;;;16.30;99.90;;;;;;6078380;29;19923;-80
2021/07/29 00:22:04;;;;;;;;;;;16.30;99.90;;;;;;6075617;29;20010;-80
2021/07/29 00:25:12;;;;;;;;;;;16.40;99.90;;;;;;6075208;29;20680;-80
2021/07/29 00:28:12;;;;;;;;;;;15.60;99.90;;;;;;6075050;29;19986;-79
2021/07/29 00:31:13;;;;;;;;;;;16.30;99.90;;;;;;6074570;29;19970;-80
2021/07/29 00:34:13;;;;;;;;;;;16.20;99.90;;;;;;6075259;29;19915;-80
2021/07/29 00:37:14;;;;;;;;;;;16.30;99.90;;;;;;6074110;29;20342;-80
2021/07/29 00:40:17;;;;;;;;;;;16.20;99.90;;;;;;6087604;29;19969;-80
2021/07/29 00:43:18;;;;;;;;;;;16.20;99.90;;;;;;6162145;28;20571;-79
2021/07/29 00:46:18;;;;;;;;;;;16.10;99.90;;;;;;6097345;29;19903;-80
2021/07/29 00:49:19;;;;;;;;;;;16.60;99.90;;;;;;6178499;28;19954;-80
2021/07/29 00:52:20;;;;;;;;;;;16.10;99.90;;;;;;6171261;28;19919;-80
2021/07/29 00:55:21;;;;;;;;;;;16.20;99.90;;;;;;6166492;28;19915;-80
2021/07/29 00:58:21;;;;;;;;;;;16.00;99.90;;;;;;6073537;29;19915;-80
2021/07/29 01:01:23;;;;;;;;;;;16.00;99.90;;;;;;6074715;29;19907;-80
2021/07/29 01:04:23;;;;;;;;;;;14.80;99.90;;;;;;6074807;29;19911;-80
2021/07/29 01:07:24;;;;;;;;;;;15.90;99.90;;;;;;6073864;29;19903;-79
2021/07/29 01:10:24;;;;;;;;;;;15.90;99.90;;;;;;6074859;29;19970;-80
2021/07/29 01:13:25;;;;;;;;;;;15.90;99.90;;;;;;6074302;29;19919;-80
2021/07/29 01:16:25;;;;;;;;;;;15.90;99.90;;;;;;6057181;29;20266;-79
2021/07/29 01:19:26;;;;;;;;;;;15.70;99.90;;;;;;6073393;29;19939;-80
2021/07/29 01:22:30;;;;;;;;;;;15.80;99.90;;;;;;6074528;29;20254;-80
2021/07/29 01:25:31;;;;;;;;;;;15.70;99.90;;;;;;6073273;29;19903;-80
2021/07/29 01:28:31;;;;;;;;;;;15.70;99.90;;;;;;6074044;29;20006;-80
2021/07/29 01:31:31;;;;;;;;;;;15.60;99.90;;;;;;6073101;29;19959;-80
2021/07/29 01:34:32;;;;;;;;;;;15.70;99.90;;;;;;6074024;29;20257;-80
2021/07/29 01:37:33;;;;;;;;;;;15.70;99.90;;;;;;6057357;28;19903;-80
2021/07/29 01:40:33;;;;;;;;;;;15.60;99.90;;;;;;6155003;28;19942;-80
2021/07/29 01:43:34;;;;;;;;;;;15.50;99.90;;;;;;6072846;29;19947;-80
2021/07/29 01:46:34;;;;;;;;;;;15.50;99.90;;;;;;6074162;29;20317;-80
2021/07/29 01:49:35;;;;;;;;;;;15.40;99.90;;;;;;6074119;29;19981;-80
2021/07/29 01:52:38;;;;;;;;;;;15.50;99.90;;;;;;6074144;29;20686;-80
2021/07/29 01:55:40;;;;;;;;;;;15.40;99.90;;;;;;6073405;29;20346;-80
2021/07/29 01:58:40;;;;;;;;;;;15.40;99.90;;;;;;6096573;29;19918;-80
2021/07/29 02:01:41;;;;;;;;;;;15.30;99.90;;;;;;6177386;28;19915;-80
2021/07/29 02:04:41;;;;;;;;;;;15.50;99.90;;;;;;6177221;28;19965;-80
2021/07/29 02:07:41;;;;;;;;;;;15.30;99.90;;;;;;6094519;29;20364;-80
2021/07/29 02:10:42;;;;;;;;;;;15.30;99.90;;;;;;6177128;28;19911;-80
2021/07/29 02:13:42;;;;;;;;;;;15.40;99.90;;;;;;6177358;28;19921;-79
2021/07/29 02:16:43;;;;;;;;;;;15.40;99.90;;;;;;6094492;29;19910;-81
2021/07/29 02:19:43;;;;;;;;;;;15.50;99.90;;;;;;6095980;29;19911;-80
2021/07/29 02:22:44;;;;;;;;;;;15.50;99.90;;;;;;6176710;28;19904;-79
2021/07/29 02:25:44;;;;;;;;;;;15.60;99.90;;;;;;6160743;28;20375;-80
2021/07/29 02:28:45;;;;;;;;;;;16.10;99.90;;;;;;6181100;28;19939;-80
2021/07/29 02:31:46;;;;;;;;;;;15.60;99.90;;;;;;6099817;29;19919;-79
2021/07/29 02:34:46;;;;;;;;;;;15.60;99.90;;;;;;6084934;29;19904;-80
2021/07/29 02:37:47;;;;;;;;;;;15.70;99.90;;;;;;6077787;29;19958;-80
2021/07/29 02:40:47;;;;;;;;;;;15.70;99.90;;;;;;6077508;29;19990;-80
2021/07/29 02:43:48;;;;;;;;;;;15.70;99.90;;;;;;6075726;29;20376;-79
2021/07/29 02:46:48;;;;;;;;;;;15.60;99.90;;;;;;6076152;29;19914;-80
2021/07/29 02:49:49;;;;;;;;;;;15.70;99.90;;;;;;6086475;29;19919;-80
2021/07/29 02:52:49;;;;;;;;;;;15.70;99.90;;;;;;6181500;28;20255;-80
2021/07/29 02:55:50;;;;;;;;;;;15.80;99.90;;;;;;6181117;28;19911;-79
2021/07/29 02:58:50;;;;;;;;;;;15.80;99.90;;;;;;6181048;28;19911;-80
2021/07/29 03:01:51;;;;;;;;;;;15.80;99.90;;;;;;6181417;28;19915;-80
2021/07/29 03:04:51;;;;;;;;;;;15.80;99.90;;;;;;6180848;28;19997;-80
2021/07/29 03:07:52;;;;;;;;;;;15.90;99.90;;;;;;6180873;28;19907;-80
2021/07/29 03:10:53;;;;;;;;;;;15.90;99.90;;;;;;6099082;29;20324;-80
2021/07/29 03:13:53;;;;;;;;;;;15.90;99.90;;;;;;6170773;28;20254;-79
2021/07/29 03:16:54;;;;;;;;;;;15.90;99.90;;;;;;6059409;29;20454;-80
2021/07/29 03:19:54;;;;;;;;;;;15.90;99.90;;;;;;6075253;29;19910;-80
2021/07/29 03:22:55;;;;;;;;;;;16.00;99.90;;;;;;6076494;29;20273;-80
2021/07/29 03:25:55;;;;;;;;;;;15.90;99.90;;;;;;6075029;29;19911;-80
2021/07/29 03:28:56;;;;;;;;;;;15.90;99.90;;;;;;6075405;28;19966;-80
2021/07/29 03:31:56;;;;;;;;;;;15.90;99.90;;;;;;6074858;29;19927;-80
2021/07/29 03:34:57;;;;;;;;;;;15.90;99.90;;;;;;6084828;29;20009;-80
2021/07/29 03:37:57;;;;;;;;;;;15.90;99.90;;;;;;6179983;28;19907;-80
2021/07/29 03:40:58;;;;;;;;;;;16.00;99.90;;;;;;6180935;28;19918;-80
2021/07/29 03:43:58;;;;;;;;;;;16.00;99.90;;;;;;6180229;28;20002;-80
2021/07/29 03:46:59;;;;;;;;;;;16.00;99.90;;;;;;6098644;29;19911;-80
2021/07/29 03:49:59;;;;;;;;;;;16.10;99.90;;;;;;6163715;28;20257;-79
2021/07/29 03:53:00;;;;;;;;;;;16.00;99.90;;;;;;6159008;28;19958;-80
2021/07/29 03:56:00;;;;;;;;;;;16.10;99.90;;;;;;6074438;29;19911;-80
2021/07/29 03:59:01;;;;;;;;;;;16.10;99.90;;;;;;6075801;29;19923;-80
2021/07/29 04:02:08;;;;;;;;;;;16.20;99.90;;;;;;6075190;29;19915;-80
2021/07/29 04:05:08;;;;;;;;;;;16.40;99.90;;;;;;6088577;29;19983;-81
2021/07/29 04:08:09;;;;;;;;;;;16.40;99.90;;;;;;6163094;28;20320;-80
2021/07/29 04:11:10;;;;;;;;;;;16.30;99.90;;;;;;6097814;29;19919;-80
2021/07/29 04:14:11;;;;;;;;;;;16.40;99.90;;;;;;6179890;28;20041;-81
2021/07/29 04:17:11;;;;;;;;;;;16.30;99.90;;;;;;6179288;28;20009;-81
2021/07/29 04:20:12;;;;;;;;;;;16.40;99.90;;;;;;6147763;28;19907;-80
2021/07/29 04:23:12;;;;;;;;;;;16.40;99.90;;;;;;6078844;29;20001;-80
2021/07/29 04:26:13;;;;;;;;;;;16.50;99.90;;;;;;6097657;29;19969;-80
2021/07/29 04:29:13;;;;;;;;;;;16.60;99.90;;;;;;6162690;28;19915;-80
2021/07/29 04:32:15;;;;;;;;;;;16.60;99.90;;;;;;6179326;28;20040;-80
2021/07/29 04:35:15;;;;;;;;;;;16.60;99.90;;;;;;6166133;28;20270;-80
2021/07/29 04:38:16;;;;;;;;;;;16.80;99.90;;;;;;6094322;29;19958;-80
2021/07/29 04:41:16;;;;;;;;;;;16.60;99.90;;;;;;6178953;28;20345;-80
2021/07/29 04:44:17;;;;;;;;;;;16.70;99.90;;;;;;6178600;28;19958;-80
2021/07/29 04:47:17;;;;;;;;;;;16.70;99.90;;;;;;6178883;28;19903;-81
2021/07/29 04:50:18;;;;;;;;;;;16.70;99.90;;;;;;6161312;28;20553;-80
2021/07/29 04:53:18;;;;;;;;;;;16.80;99.90;;;;;;6097247;29;20336;-80
2021/07/29 04:56:19;;;;;;;;;;;16.70;99.90;;;;;;6096945;29;20550;-80
2021/07/29 04:59:21;;;;;;;;;;;16.80;99.90;;;;;;6097173;29;19910;-80
2021/07/29 05:02:21;;;;;;;;;;;17.10;99.90;;;;;;6097358;29;20272;-80
2021/07/29 05:05:22;;;;;;;;;;;16.90;99.90;;;;;;6096719;29;19918;-81
2021/07/29 05:08:22;;;;;;;;;;;16.90;99.90;;;;;;6178216;28;19919;-81
2021/07/29 05:11:23;;;;;;;;;;;16.90;99.90;;;;;;6177973;28;19927;-80
2021/07/29 05:14:24;;;;;;;;;;;17.00;99.90;;;;;;6094796;29;19903;-79
2021/07/29 05:17:25;;;;;;;;;;;17.10;99.90;;;;;;6064677;28;20333;-80
2021/07/29 05:20:25;;;;;;;;;;;17.20;99.90;;;;;;6097041;29;19911;-83
2021/07/29 05:23:26;;;;;;;;;;;17.80;99.90;;;;;;6168456;28;19911;-79
2021/07/29 05:26:26;;;;;;;;;;;17.40;99.90;;;;;;6077507;28;20017;-80
2021/07/29 05:29:30;;;;;;;;;;;17.50;99.90;;;;;;6072606;29;19904;-80
2021/07/29 05:32:31;;;;;;;;;;;17.60;99.90;;;;;;6072581;29;19919;-80
2021/07/29 05:35:32;;;;;;;;;;;18.10;99.90;;;;;;6072823;29;20021;-80
2021/07/29 05:38:33;;;;;;;;;;;18.90;99.90;;;;;;6076074;28;19926;-81
2021/07/29 05:41:34;;;;;;;;;;;19.20;99.90;;;;;;6075505;29;20002;-79
2021/07/29 05:44:36;;;;;;;;;;;19.60;99.90;;;;;;6167463;28;20261;-79
2021/07/29 05:47:36;;;;;;;;;;;19.60;99.90;;;;;;6076341;28;19929;-84
2021/07/29 05:50:37;;;;;;;;;;;19.50;99.90;;;;;;6176877;28;19907;-82
2021/07/29 05:53:37;;;;;;;;;;;19.20;99.90;;;;;;6082057;28;19920;-81
2021/07/29 05:56:38;;;;;;;;;;;19.10;99.90;;;;;;6072099;29;19903;-82
2021/07/29 05:59:38;;;;;;;;;;;19.00;99.90;;;;;;6076171;29;19919;-82
2021/07/29 06:02:39;;;;;;;;;;;19.10;99.90;;;;;;6092545;29;19914;-81
2021/07/29 06:05:39;;;;;;;;;;;19.00;99.90;;;;;;6091147;28;19915;-82
2021/07/29 06:08:40;;;;;;;;;;;19.10;99.90;;;;;;6061630;28;20336;-85
2021/07/29 06:11:40;;;;;;;;;;;19.10;99.90;;;;;;6071964;29;19919;-83
2021/07/29 06:14:41;;;;;;;;;;;19.40;99.90;;;;;;6054652;29;19974;-81
2021/07/29 06:17:44;;;;;;;;;;;19.60;99.90;;;;;;6077726;29;19930;-85
2021/07/29 06:20:45;;;;;;;;;;;20.20;99.90;;;;;;6146186;28;19913;-90
2021/07/29 06:23:46;;;;;;;;;;;21.70;99.90;;;;;;6142400;28;19912;-86
2021/07/29 06:26:48;;;;;;;;;;;19.80;99.90;;;;;;6170416;28;19969;-84
2021/07/29 06:29:49;;;;;;;;;;;20.00;99.90;;;;;;6149136;28;19957;-89
2021/07/29 06:32:49;;;;;;;;;;;20.40;99.90;;;;;;6064348;29;19919;-87
2021/07/29 06:35:50;;;;;;;;;;;20.60;99.90;;;;;;6152139;28;19907;-89
2021/07/29 06:38:50;;;;;;;;;;;20.90;99.90;;;;;;6065286;29;20345;-87
2021/07/29 06:41:51;;;;;;;;;;;20.80;99.90;;;;;;6147727;28;20381;-89
2021/07/29 06:44:51;;;;;;;;;;;22.40;99.90;;;;;;6149543;28;19922;-87
2021/07/29 06:47:52;;;;;;;;;;;20.80;99.90;;;;;;6150108;28;19907;-87
2021/07/29 06:50:53;;;;;;;;;;;20.80;99.90;;;;;;6068383;29;19911;-87
2021/07/29 06:53:53;;;;;;;;;;;20.80;99.90;;;;;;6063204;29;20308;-86
2021/07/29 06:56:53;;;;;;;;;;;20.60;99.90;;;;;;6146785;28;19912;-86
2021/07/29 06:59:54;;;;;;;;;;;20.60;99.90;;;;;;6067299;29;19942;-84
2021/07/29 07:02:55;;;;;;;;;;;20.40;99.90;;;;;;6084618;29;19914;-87
2021/07/29 07:05:59;;;;;;;;;;;20.30;99.90;;;;;;6140385;28;19911;-86
2021/07/29 07:08:59;;;;;;;;;;;20.40;99.90;;;;;;6087858;29;19923;-85
2021/07/29 07:12:03;;;;;;;;;;;20.30;99.90;;;;;;6144124;28;19919;-89
2021/07/29 07:15:04;;;;;;;;;;;20.30;99.90;;;;;;6078253;29;19907;-88
2021/07/29 07:18:08;;;;;;;;;;;20.50;99.90;;;;;;6154756;28;19927;-86
2021/07/29 07:21:12;;;;;;;;;;;20.20;99.90;;;;;;6087632;28;20015;-86
2021/07/29 07:24:12;;;;;;;;;;;20.40;99.10;;;;;;6064782;29;19916;-85
2021/07/29 07:27:13;;;;;;;;;;;20.90;99.90;;;;;;6069380;29;19990;-90
2021/07/29 07:30:14;;;;;;;;;;;21.40;99.90;;;;;;6157216;28;20334;-87
2021/07/29 07:33:23;;;;;;;;;;;20.70;99.90;;;;;;6065716;29;19918;-89
2021/07/29 07:36:34;;;;;;;;;;;;;;;;;;;;;
2021/07/29 07:39:38;;;;;;;;;;;21.90;99.90;;;;;;6160760;28;19991;-89
2021/07/29 07:42:45;;;;;;;;;;;23.30;99.90;;;;;;6071386;29;19935;-91
2021/07/29 07:45:48;;;;;;;;;;;23.00;95.80;;;;;;6072655;29;19911;-91
2021/07/29 07:48:55;;;;;;;;;;;23.70;97.40;;;;;;6070673;29;19911;-91
2021/07/29 07:51:56;;;;;;;;;;;25.70;95.70;;;;;;6075184;29;20006;-87
2021/07/29 07:54:57;;;;;;;;;;;23.10;96.60;;;;;;6092977;29;20304;-87
2021/07/29 07:57:58;;;;;;;;;;;22.80;96.30;;;;;;6152375;28;19911;-86
2021/07/29 08:01:01;;;;;;;;;;;22.90;96.50;;;;;;6163373;28;20357;-87
2021/07/29 08:04:02;;;;;;;;;;;22.70;95.90;;;;;;6163103;28;19915;-85
2021/07/29 08:07:02;;;;;;;;;;;22.20;96.50;;;;;;6157927;28;19926;-86
2021/07/29 08:10:03;;;;;;;;;;;21.80;96.60;;;;;;6155301;28;19937;-84
2021/07/29 08:13:06;;;;;;;;;;;21.80;96.90;;;;;;6083178;28;19922;-85
2021/07/29 08:16:07;;;;;;;;;;;21.50;96.40;;;;;;6082317;29;19903;-83
2021/07/29 08:19:10;;;;;;;;;;;21.60;98.00;;;;;;6162852;28;19958;-86
2021/07/29 08:22:11;;;;;;;;;;;20.10;98.40;;;;;;6144438;28;19990;-82
2021/07/29 08:25:12;;;;;;;;;;;21.30;96.80;;;;;;6096256;29;19911;-84
2021/07/29 08:28:13;;;;;;;;;;;21.80;98.40;;;;;;6169978;28;19903;-82
2021/07/29 08:31:14;;;;;;;;;;;21.80;96.90;;;;;;6178932;28;20458;-83
2021/07/29 08:34:14;;;;;;;;;;;21.80;96.70;;;;;;6161696;28;19911;-84
2021/07/29 08:37:15;;;;;;;;;;;21.80;96.50;;;;;;6095860;29;19903;-82
2021/07/29 08:40:17;;;;;;;;;;;22.20;96.00;;;;;;6159502;28;20272;-82
2021/07/29 08:43:17;;;;;;;;;;;23.20;94.60;;;;;;6175713;28;19904;-83
2021/07/29 08:46:19;;;;;;;;;;;24.40;91.70;;;;;;6164982;28;20436;-84
2021/07/29 08:49:23;;;;;;;;;;;25.10;91.70;;;;;;6071697;29;20029;-84
2021/07/29 08:52:24;;;;;;;;;;;26.10;90.70;;;;;;6056426;29;19931;-84
2021/07/29 08:55:24;;;;;;;;;;;26.60;87.90;;;;;;6084063;28;20504;-86
2021/07/29 08:58:25;;;;;;;;;;;26.80;83.30;;;;;;6057570;29;19925;-82
2021/07/29 09:01:38;;;;;;;;;;;26.10;83.80;;;;;;6057611;29;20022;-85
2021/07/29 09:04:39;;;;;;;;;;;26.70;79.50;;;;;;6060192;29;20082;-85
2021/07/29 09:07:39;;;;;;;;;;;26.80;85.80;;;;;;6076986;28;20282;-84
2021/07/29 09:10:42;;;;;;;;;;;27.60;82.20;;;;;;6060303;29;19922;-83
2021/07/29 09:13:48;;;;;;;;;;;27.60;78.90;;;;;;6081402;29;19919;-83
2021/07/29 09:16:56;;;;;;;;;;;27.00;79.30;;;;;;6081031;29;20455;-82
2021/07/29 09:19:57;;;;;;;;;;;26.50;77.10;;;;;;6161020;28;20380;-82
2021/07/29 09:23:11;;;;;;;;;;;25.80;79.90;;;;;;6073914;29;19907;-81
2021/07/29 09:26:11;;;;;;;;;;;25.60;83.60;;;;;;6154498;28;19915;-81
2021/07/29 09:29:21;;;;;;;;;;;25.40;83.10;;;;;;6094058;29;20307;-85
2021/07/29 09:32:22;;;;;;;;;;;25.40;78.80;;;;;;6140051;28;19927;-87
2021/07/29 09:35:30;;;;;;;;;;;25.00;84.80;;;;;;6077065;29;19915;-86
2021/07/29 09:38:31;;;;;;;;;;;24.20;81.60;;;;;;6147909;28;19911;-86
2021/07/29 09:41:32;;;;;;;;;;;24.00;87.20;;;;;;6058964;29;19997;-84
2021/07/29 09:44:42;;;;;;;;;;;24.00;87.00;;;;;;6149034;28;19934;-88
2021/07/29 09:47:43;;;;;;;;;;;24.00;85.50;;;;;;6073966;29;20330;-85
2021/07/29 09:50:43;;;;;;;;;;;23.60;84.80;;;;;;6148545;28;19945;-87
2021/07/29 09:53:44;;;;;;;;;;;23.60;85.90;;;;;;6060452;29;19911;-83
2021/07/29 09:56:45;;;;;;;;;;;23.60;85.40;;;;;;6150973;28;20336;-85
2021/07/29 09:59:45;;;;;;;;;;;23.50;88.40;;;;;;6075570;29;19912;-85
2021/07/29 10:02:46;;;;;;;;;;;23.90;90.00;;;;;;6176972;28;20326;-84
2021/07/29 10:05:51;;;;;;;;;;;24.10;90.10;;;;;;6153847;28;19918;-81
2021/07/29 10:08:54;;;;;;;;;;;23.80;83.80;;;;;;6155135;28;19989;-80
2021/07/29 10:11:58;;;;;;;;;;;24.10;87.40;;;;;;6071874;29;19923;-80
2021/07/29 10:14:59;;;;;;;;;;;24.80;83.80;;;;;;6071915;29;19911;-81
2021/07/29 10:18:02;;;;;;;;;;;25.10;83.50;;;;;;6072159;29;19997;-80
2021/07/29 10:21:22;;;;;;;;;;;24.80;82.10;;;;;;6095600;29;19903;-80
2021/07/29 10:24:23;;;;;;;;;;;24.70;79.80;;;;;;6152412;28;20373;-80
2021/07/29 10:27:23;;;;;;;;;;;24.70;82.50;;;;;;6071917;28;19962;-81
2021/07/29 10:30:24;;;;;;;;;;;24.60;83.70;;;;;;6071374;29;20342;-81
2021/07/29 10:33:24;;;;;;;;;;;24.50;85.80;;;;;;6071564;29;19955;-82
2021/07/29 10:36:42;;;;;;;;;;;24.30;86.00;;;;;;6071907;29;19910;-82
2021/07/29 10:39:55;;;;;;;;;;;23.60;81.20;;;;;;6075144;28;19993;-79
2021/07/29 10:42:56;;;;;;;;;;;24.20;85.60;;;;;;6176884;28;19907;-79
2021/07/29 10:45:57;;;;;;;;;;;24.50;84.90;;;;;;6177170;28;19903;-80
2021/07/29 10:49:13;;;;;;;;;;;25.20;82.40;;;;;;6179565;28;20351;-81
2021/07/29 10:52:13;;;;;;;;;;;26.20;80.80;;;;;;6170872;28;19973;-81
2021/07/29 10:55:14;;;;;;;;;;;26.90;82.70;;;;;;6181131;28;19911;-81
2021/07/29 10:58:14;;;;;;;;;;;26.70;80.30;;;;;;6181273;28;20238;-81
2021/07/29 11:01:16;;;;;;;;;;;27.20;84.50;;;;;;6180065;28;20446;-79
2021/07/29 11:04:16;;;;;;;;;;;27.20;79.40;;;;;;6077125;28;20594;-81
2021/07/29 11:07:17;;;;;;;;;;;27.50;77.40;;;;;;6061836;29;19910;-80
2021/07/29 11:10:20;;;;;;;;;;;27.40;78.30;;;;;;6074123;28;19946;-81
2021/07/29 11:13:20;;;;;;;;;;;26.70;75.80;;;;;;6074759;29;19923;-81
2021/07/29 11:16:21;;;;;;;;;;;26.30;80.00;;;;;;6075048;29;19908;-81
2021/07/29 11:19:21;;;;;;;;;;;26.20;81.00;;;;;;6076485;29;20277;-79
2021/07/29 11:22:22;;;;;;;;;;;26.00;79.20;;;;;;6074714;29;19920;-80
2021/07/29 11:25:22;;;;;;;;;;;25.50;79.10;;;;;;6075590;28;19922;-81
2021/07/29 11:28:23;;;;;;;;;;;25.30;80.50;;;;;;6074759;29;19908;-81
2021/07/29 11:31:23;;;;;;;;;;;25.30;81.80;;;;;;6076136;29;19926;-79
2021/07/29 11:34:27;;;;;;;;;;;25.50;81.90;;;;;;6076065;29;19915;-81
2021/07/29 11:37:34;;;;;;;;;;;26.00;77.20;;;;;;6074736;29;20345;-79
2021/07/29 11:40:35;;;;;;;;;;;26.40;78.80;;;;;;6074791;29;19990;-80
2021/07/29 11:43:35;;;;;;;;;;;26.60;77.70;;;;;;6079715;29;19907;-79
2021/07/29 11:46:36;;;;;;;;;;;27.00;76.10;;;;;;6077063;28;19912;-79
2021/07/29 11:49:49;;;;;;;;;;;27.00;79.40;;;;;;6106333;28;20302;-79
2021/07/29 11:52:53;;;;;;;;;;;27.30;75.70;;;;;;6087343;29;20276;-80
2021/07/29 11:55:54;;;;;;;;;;;26.50;75.30;;;;;;6179592;28;19915;-80
2021/07/29 11:58:55;;;;;;;;;;;26.20;77.20;;;;;;6163168;28;20248;-81
2021/07/29 12:01:56;;;;;;;;;;;26.20;78.50;;;;;;6179136;28;19918;-80
2021/07/29 12:04:57;;;;;;;;;;;26.60;81.50;;;;;;6179734;28;20651;-79
2021/07/29 12:07:57;;;;;;;;;;;26.80;81.20;;;;;;6144955;28;19911;-80
2021/07/29 12:10:58;;;;;;;;;;;27.30;81.70;;;;;;6073719;28;19920;-80
2021/07/29 12:13:58;;;;;;;;;;;27.10;82.90;;;;;;6074127;29;19970;-79
2021/07/29 12:16:59;;;;;;;;;;;27.30;81.40;;;;;;6077440;28;20453;-80
2021/07/29 12:20:04;;;;;;;;;;;27.00;81.40;;;;;;6073812;29;19903;-79
2021/07/29 12:23:09;;;;;;;;;;;27.00;76.60;;;;;;6095945;28;19911;-80
2021/07/29 12:26:10;;;;;;;;;;;26.70;73.20;;;;;;6178808;28;19965;-79
2021/07/29 12:29:11;;;;;;;;;;;26.90;80.20;;;;;;6178907;28;19950;-79
2021/07/29 12:32:18;;;;;;;;;;;26.50;79.40;;;;;;6162448;28;20278;-79
2021/07/29 12:35:19;;;;;;;;;;;26.30;76.50;;;;;;6162756;28;19911;-79
2021/07/29 12:38:19;;;;;;;;;;;26.20;77.70;;;;;;6179292;28;20356;-79
2021/07/29 12:41:27;;;;;;;;;;;25.90;80.30;;;;;;6178534;28;19911;-79
2021/07/29 12:44:28;;;;;;;;;;;26.20;80.80;;;;;;6097271;29;19911;-79
2021/07/29 12:47:28;;;;;;;;;;;26.00;79.80;;;;;;6074686;29;19998;-80
2021/07/29 12:50:36;;;;;;;;;;;25.90;79.30;;;;;;6074341;29;19912;-80
2021/07/29 12:53:36;;;;;;;;;;;25.80;77.80;;;;;;6081063;29;20506;-80
2021/07/29 12:56:37;;;;;;;;;;;25.20;78.30;;;;;;6096744;29;20341;-80
2021/07/29 12:59:37;;;;;;;;;;;25.60;79.30;;;;;;6089143;29;20001;-79
2021/07/29 13:02:39;;;;;;;;;;;25.60;78.90;;;;;;6096740;29;20906;-79
2021/07/29 13:05:40;;;;;;;;;;;25.60;82.20;;;;;;6097083;29;20349;-79
2021/07/29 13:08:40;;;;;;;;;;;25.90;85.00;;;;;;6094879;29;19929;-80
2021/07/29 13:11:42;;;;;;;;;;;26.10;80.60;;;;;;6157936;28;19916;-79
2021/07/29 13:14:42;;;;;;;;;;;25.90;80.20;;;;;;6057499;29;19916;-80
2021/07/29 13:17:43;;;;;;;;;;;26.00;78.90;;;;;;6073486;29;20723;-79
2021/07/29 13:20:44;;;;;;;;;;;26.60;82.60;;;;;;6074280;29;19903;-80
2021/07/29 13:23:44;;;;;;;;;;;25.80;80.00;;;;;;6072302;28;19911;-79
2021/07/29 13:26:45;;;;;;;;;;;26.00;79.40;;;;;;6072898;28;19915;-80
2021/07/29 13:29:45;;;;;;;;;;;26.00;79.80;;;;;;6078379;29;20002;-80
2021/07/29 13:32:46;;;;;;;;;;;26.00;79.10;;;;;;6095142;29;20316;-80
2021/07/29 13:35:46;;;;;;;;;;;26.10;78.90;;;;;;6073635;29;19966;-81
2021/07/29 13:38:49;;;;;;;;;;;26.10;84.40;;;;;;6080561;28;19907;-80
2021/07/29 13:41:52;;;;;;;;;;;25.90;79.50;;;;;;6087044;28;19907;-79
2021/07/29 13:45:38;;;;;;;;;;;25.80;77.20;;;;;;6072184;29;19903;-80
2021/07/29 13:48:14;;;;;;;;;;;25.80;77.80;;;;;;6066095;29;19904;-81
2021/07/29 13:51:14;;;;;;;;;;;25.70;79.40;;;;;;6083974;29;20636;-81
2021/07/29 13:54:16;;;;;;;;;;;25.80;79.80;;;;;;6080065;29;19919;-80
2021/07/29 13:57:16;;;;;;;;;;;26.00;78.80;;;;;;6078122;28;19918;-81
2021/07/29 14:00:17;;;;;;;;;;;25.70;78.70;;;;;;6056428;29;20659;-81
2021/07/29 14:03:17;;;;;;;;;;;25.80;79.50;;;;;;6072118;28;20373;-81
2021/07/29 14:06:18;;;;;;;;;;;25.80;79.70;;;;;;6056201;29;19916;-80
2021/07/29 14:09:19;;;;;;;;;;;26.00;80.90;;;;;;6095292;29;19915;-80
2021/07/29 14:12:23;;;;;;;;;;;26.10;79.60;;;;;;6095460;29;20385;-79
2021/07/29 14:15:24;;;;;;;;;;;26.20;78.30;;;;;;6095622;29;19907;-80
2021/07/29 14:18:24;;;;;;;;;;;25.90;78.80;;;;;;6142842;28;20398;-80
2021/07/29 14:22:53;;;;;;;;;;;26.00;77.30;;;;;;6071940;29;19946;-80
2021/07/29 14:24:45;;;;;;;;;;;26.00;75.60;;;;;;6076373;29;20250;-80
2021/07/29 14:27:46;;;;;;;;;;;25.90;79.40;;;;;;6076980;29;19918;-80
2021/07/29 14:30:46;;;;;;;;;;;25.90;79.60;;;;;;6077128;29;19910;-80
2021/07/29 14:33:47;;;;;;;;;;;26.10;77.70;;;;;;6077262;29;20645;-80
2021/07/29 14:36:47;;;;;;;;;;;26.10;78.90;;;;;;6078151;28;19905;-80
2021/07/29 14:39:48;;;;;;;;;;;26.30;78.40;;;;;;6076610;29;19997;-80
2021/07/29 14:42:48;;;;;;;;;;;26.10;78.10;;;;;;6076703;29;19914;-80
2021/07/29 14:49:17;;;;;;;;;;;26.10;76.80;;;;;;6075715;29;19907;-79
2021/07/29 14:52:19;;;;;;;;;;;26.10;78.00;;;;;;6076894;29;20342;-80
2021/07/29 16:08:15;;;;;;;;;;;25.80;79.80;;;;;;6074903;28;19923;-79
2021/07/29 16:11:16;;;;;;;;;;;26.10;79.30;;;;;;6075123;29;20373;-85
2021/07/29 16:14:27;;;;;;;;;;;25.80;81.00;;;;;;6088072;29;19915;-81
2021/07/29 16:17:29;;;;;;;;;;;25.80;81.30;;;;;;6147457;28;19914;-86
2021/07/29 16:20:29;;;;;;;;;;;25.70;80.30;;;;;;6073650;29;20384;-80
2021/07/29 16:23:30;;;;;;;;;;;25.70;81.70;;;;;;6073902;29;19911;-82
2021/07/29 16:26:30;;;;;;;;;;;25.60;80.70;;;;;;6073486;29;19904;-80
2021/07/29 16:29:30;;;;;;;;;;;25.70;80.10;;;;;;6089067;29;20292;-80
2021/07/29 16:32:31;;;;;;;;;;;25.20;81.90;;;;;;6175048;28;19961;-85
2021/07/29 16:35:31;;;;;;;;;;;25.60;81.40;;;;;;6067725;28;20512;-86
2021/07/29 16:38:32;;;;;;;;;;;25.50;81.70;;;;;;6078300;29;19922;-86
2021/07/29 16:41:33;;;;;;;;;;;25.50;82.90;;;;;;6146247;28;20042;-88
2021/07/29 16:44:33;;;;;;;;;;;25.30;81.30;;;;;;6139947;28;19930;-85
2021/07/29 16:47:34;;;;;;;;;;;25.50;80.60;;;;;;6071914;28;19915;-82
2021/07/29 16:50:35;;;;;;;;;;;25.60;83.90;;;;;;6062209;28;19907;-82
2021/07/29 16:53:35;;;;;;;;;;;25.40;81.70;;;;;;6063520;28;19930;-83
2021/07/29 16:56:36;;;;;;;;;;;25.40;81.80;;;;;;6062408;29;20046;-86
2021/07/29 16:59:36;;;;;;;;;;;25.40;82.80;;;;;;6153175;28;20277;-85
2021/07/29 17:02:37;;;;;;;;;;;25.40;85.90;;;;;;6166795;28;20028;-83
2021/07/29 17:05:38;;;;;;;;;;;25.20;83.50;;;;;;6073379;28;20006;-83
2021/07/29 17:08:38;;;;;;;;;;;25.20;84.00;;;;;;6086232;28;19961;-81
2021/07/29 17:11:39;;;;;;;;;;;25.20;83.50;;;;;;6158509;28;19922;-84
2021/07/29 17:14:39;;;;;;;;;;;25.10;84.10;;;;;;6071862;28;20398;-83
2021/07/29 17:17:42;;;;;;;;;;;25.10;82.80;;;;;;6074105;29;19911;-85
2021/07/29 17:20:43;;;;;;;;;;;24.90;84.00;;;;;;6071646;29;19910;-84
2021/07/29 17:23:43;;;;;;;;;;;24.80;84.60;;;;;;6167006;28;19920;-82
2021/07/29 17:26:44;;;;;;;;;;;24.80;84.20;;;;;;6139522;28;19919;-84
2021/07/29 17:29:44;;;;;;;;;;;26.60;85.90;;;;;;6066770;29;20403;-84
2021/07/29 17:32:45;;;;;;;;;;;24.60;84.00;;;;;;6142061;28;19911;-84
2021/07/29 17:35:46;;;;;;;;;;;24.60;83.30;;;;;;6073251;28;19915;-85
2021/07/29 17:38:48;;;;;;;;;;;24.80;84.50;;;;;;6065197;28;19934;-81
2021/07/29 17:41:49;;;;;;;;;;;24.70;84.50;;;;;;6142439;28;20273;-82
2021/07/29 17:44:49;;;;;;;;;;;24.40;84.60;;;;;;6073268;28;19908;-81
2021/07/29 17:47:50;;;;;;;;;;;24.20;85.40;;;;;;6063434;28;19997;-83
2021/07/29 17:50:50;;;;;;;;;;;24.20;84.70;;;;;;6055553;28;19907;-83
2021/07/29 17:53:52;;;;;;;;;;;24.20;85.30;;;;;;6056198;28;19926;-82
2021/07/29 17:56:53;;;;;;;;;;;23.90;86.10;;;;;;6080014;29;19912;-83
2021/07/29 17:59:54;;;;;;;;;;;24.10;87.80;;;;;;6085919;29;20384;-82
2021/07/29 18:02:54;;;;;;;;;;;23.90;89.00;;;;;;6143984;28;20428;-83
2021/07/29 18:05:57;;;;;;;;;;;23.80;89.10;;;;;;6152141;28;19990;-83
2021/07/29 18:08:57;;;;;;;;;;;23.70;88.40;;;;;;6069443;28;20316;-84
2021/07/29 18:11:58;;;;;;;;;;;23.10;89.60;;;;;;6071177;29;19938;-83
2021/07/29 18:14:59;;;;;;;;;;;23.50;89.00;;;;;;6087548;29;19903;-83
2021/07/29 18:18:00;;;;;;;;;;;23.40;89.80;;;;;;6177470;28;19918;-84
2021/07/29 18:21:00;;;;;;;;;;;23.60;90.30;;;;;;6172388;28;19911;-84
2021/07/29 18:24:04;;;;;;;;;;;23.40;91.00;;;;;;6151663;28;20398;-86
2021/07/29 18:27:08;;;;;;;;;;;23.60;90.00;;;;;;6057667;28;19911;-87
2021/07/29 18:30:08;;;;;;;;;;;23.30;90.00;;;;;;6146834;28;19914;-88
2021/07/29 18:33:12;;;;;;;;;;;23.20;91.50;;;;;;6151368;28;19923;-87
2021/07/29 18:36:12;;;;;;;;;;;22.90;90.70;;;;;;6145024;28;20261;-87
2021/07/29 18:39:13;;;;;;;;;;;22.80;91.70;;;;;;6069493;29;20010;-86
2021/07/29 18:42:14;;;;;;;;;;;22.90;94.00;;;;;;6078750;28;19977;-88
2021/07/29 18:45:14;;;;;;;;;;;23.10;94.40;;;;;;6155543;28;20524;-86
2021/07/29 18:48:15;;;;;;;;;;;23.10;95.80;;;;;;6155100;28;20297;-86
2021/07/29 18:51:16;;;;;;;;;;;22.30;94.20;;;;;;6066920;28;19922;-88
2021/07/29 18:54:16;;;;;;;;;;;22.10;94.40;;;;;;6070764;29;19903;-85